Time;durP1;ratioP1;P1;durP2;ratioP2;P2;SDS_P1;SDS_P2;PMS_P1;PMS_P2;Temp;Humidity;BMP_temperature;BMP_pressure;BME280_temperature;BME280_humidity;BME280_pressure;Samples;Min_cycle;Max_cycle;Signal;HPM_P1;HPM_P2
2021/06/13 00:01:16;;;;;;;12.73;4.18;;;;;;;12.87;76.92;96364.59;5113839;28;20038;-60
2021/06/13 00:03:42;;;;;;;7.43;4.55;;;;;;;12.86;77.09;96360.28;5113716;28;20042;-60
2021/06/13 00:06:07;;;;;;;12.10;3.58;;;;;;;12.83;76.67;96363.06;5114061;28;20111;-61
2021/06/13 00:08:33;;;;;;;6.72;4.07;;;;;;;12.76;76.75;96365.97;5113977;28;20020;-61
2021/06/13 00:11:00;;;;;;;8.48;3.92;;;;;;;12.69;77.04;96361.97;5113938;28;20103;-60
2021/06/13 00:13:27;;;;;;;6.35;3.83;;;;;;;12.66;76.98;96361.25;5113410;28;20114;-60
2021/06/13 00:15:52;;;;;;;8.68;3.70;;;;;;;12.61;76.36;96361.47;5113945;28;20550;-61
2021/06/13 00:18:20;;;;;;;7.03;3.50;;;;;;;12.55;76.92;96357.38;5113757;28;20039;-61
2021/06/13 00:20:45;;;;;;;12.80;3.80;;;;;;;12.46;77.30;96357.84;5113697;28;20039;-61
2021/06/13 00:23:11;;;;;;;17.45;3.83;;;;;;;12.48;76.81;96354.22;5113089;28;20027;-60
2021/06/13 00:25:36;;;;;;;6.32;3.95;;;;;;;12.50;76.94;96359.41;5095256;28;20027;-60
2021/06/13 00:28:03;;;;;;;11.05;3.95;;;;;;;12.42;77.49;96358.91;5113787;28;20029;-61
2021/06/13 00:30:28;;;;;;;9.20;4.10;;;;;;;12.42;77.37;96362.38;5113594;28;20052;-61
2021/06/13 00:32:54;;;;;;;12.48;3.70;;;;;;;12.31;77.70;96357.66;5113250;28;20089;-59
2021/06/13 00:35:21;;;;;;;7.22;3.75;;;;;;;12.29;77.31;96343.78;5113561;28;20020;-62
2021/06/13 00:37:48;;;;;;;10.65;4.10;;;;;;;12.28;77.86;96349.94;5113572;28;20024;-61
2021/06/13 00:40:14;;;;;;;11.15;4.00;;;;;;;12.16;78.00;96347.91;5113672;28;20012;-60
2021/06/13 00:42:40;;;;;;;13.75;3.60;;;;;;;12.21;77.53;96346.75;5113001;28;20027;-61
2021/06/13 00:45:07;;;;;;;11.05;4.63;;;;;;;12.22;77.23;96358.94;5113395;28;20027;-62
2021/06/13 00:47:33;;;;;;;10.18;3.80;;;;;;;12.25;77.53;96347.44;5113337;28;20019;-61
2021/06/13 00:49:59;;;;;;;8.70;4.10;;;;;;;12.25;77.28;96350.06;5113523;28;20062;-63
2021/06/13 00:52:25;;;;;;;4.03;3.03;;;;;;;12.22;77.08;96347.63;5113334;28;20373;-61
2021/06/13 00:54:51;;;;;;;8.02;3.85;;;;;;;12.17;77.57;96345.22;5113029;28;20437;-62
2021/06/13 00:57:17;;;;;;;7.00;3.28;;;;;;;12.19;77.33;96345.16;5113313;28;20058;-61
2021/06/13 00:59:42;;;;;;;15.90;4.15;;;;;;;12.19;77.11;96343.34;5113258;28;20020;-62
2021/06/13 01:02:08;;;;;;;4.03;3.47;;;;;;;12.18;77.25;96330.31;5115945;28;20040;-61
2021/06/13 01:04:34;;;;;;;20.15;4.38;;;;;;;12.18;77.60;96335.56;5098823;28;20381;-63
2021/06/13 01:07:08;;;;;;;5.88;3.40;;;;;;;12.07;77.70;96336.91;5117596;28;20507;-61
2021/06/13 01:09:41;;;;;;;19.75;4.22;;;;;;;12.13;77.47;96327.91;5117416;28;20023;-62
2021/06/13 01:12:15;;;;;;;11.85;3.97;;;;;;;12.12;76.98;96327.09;5117192;28;20469;-63
2021/06/13 01:14:59;;;;;;;5.15;3.13;;;;;;;12.07;77.61;96326.44;5116698;28;20052;-63
2021/06/13 01:17:38;;;;;;;5.82;3.28;;;;;;;12.04;78.05;96326.53;5117296;28;20024;-62
2021/06/13 01:20:19;;;;;;;5.97;3.88;;;;;;;12.06;79.27;96327.34;5096632;28;20035;-62
2021/06/13 01:23:03;;;;;;;19.17;5.22;;;;;;;12.06;78.29;96332.56;5096801;28;20032;-62
2021/06/13 01:25:59;;;;;;;3.50;3.20;;;;;;;12.09;78.44;96329.84;5109876;28;20031;-62
2021/06/13 01:28:40;;;;;;;6.97;3.65;;;;;;;12.10;77.47;96323.66;5117082;28;20028;-63
2021/06/13 01:31:07;;;;;;;7.15;3.47;;;;;;;12.07;77.54;96321.19;5116927;28;20024;-62
2021/06/13 01:33:34;;;;;;;6.05;3.63;;;;;;;11.97;77.33;96318.13;5116860;28;20035;-62
2021/06/13 01:36:02;;;;;;;6.45;3.42;;;;;;;11.98;77.44;96319.81;5116451;28;20477;-63
2021/06/13 01:38:30;;;;;;;7.47;3.20;;;;;;;11.99;77.08;96326.78;5116721;28;20079;-62
2021/06/13 01:41:01;;;;;;;8.45;3.60;;;;;;;11.92;77.71;96314.88;5116841;28;20028;-62
2021/06/13 01:43:28;;;;;;;3.95;3.28;;;;;;;11.84;77.46;96319.63;5116942;28;20020;-63
2021/06/13 01:45:56;;;;;;;5.70;4.05;;;;;;;11.91;77.98;96317.56;5116112;28;20515;-61
2021/06/13 01:48:22;;;;;;;14.30;4.10;;;;;;;11.91;77.46;96310.56;5116447;28;20023;-63
2021/06/13 01:50:49;;;;;;;6.20;3.85;;;;;;;11.93;77.04;96311.34;5116662;28;20020;-61
2021/06/13 01:53:17;;;;;;;9.50;3.80;;;;;;;11.94;77.61;96320.03;5116582;28;20031;-61
2021/06/13 01:55:48;;;;;;;5.15;4.28;;;;;;;11.81;78.04;96306.66;5116210;28;20379;-62
2021/06/13 01:58:17;;;;;;;13.43;4.03;;;;;;;11.77;77.95;96313.81;5116436;28;20027;-61
2021/06/13 02:00:44;;;;;;;7.05;4.82;;;;;;;11.80;77.67;96304.97;5116239;28;20099;-62
2021/06/13 02:03:11;;;;;;;6.88;4.88;;;;;;;11.78;78.36;96309.44;5116328;28;20507;-62
2021/06/13 02:05:38;;;;;;;16.48;4.93;;;;;;;11.79;78.47;96306.75;5115799;28;20028;-61
2021/06/13 02:08:04;;;;;;;7.78;3.95;;;;;;;11.79;78.08;96301.50;5115989;28;20030;-62
2021/06/13 02:10:32;;;;;;;11.82;4.28;;;;;;;11.80;78.82;96307.59;5116196;28;20018;-61
2021/06/13 02:12:59;;;;;;;14.68;5.38;;;;;;;11.79;78.54;96308.50;5115685;28;20020;-62
2021/06/13 02:15:27;;;;;;;10.00;3.60;;;;;;;11.78;78.51;96307.66;5115179;28;20043;-60
2021/06/13 02:17:54;;;;;;;10.98;4.78;;;;;;;11.82;78.37;96311.84;5116132;28;20023;-62
2021/06/13 02:20:23;;;;;;;12.32;4.22;;;;;;;11.79;78.40;96298.88;5116161;28;20024;-61
2021/06/13 02:22:52;;;;;;;10.40;5.28;;;;;;;11.81;78.46;96301.44;5115423;28;20035;-62
2021/06/13 02:25:23;;;;;;;6.07;3.90;;;;;;;11.86;79.11;96300.28;5115838;28;20019;-62
2021/06/13 02:27:52;;;;;;;10.63;3.53;;;;;;;11.87;78.60;96295.91;5115953;28;20036;-60
2021/06/13 02:30:19;;;;;;;9.00;5.10;;;;;;;11.82;79.01;96292.63;5115919;28;20020;-60
2021/06/13 02:32:46;;;;;;;5.07;3.85;;;;;;;11.85;78.35;96302.97;5115768;28;20048;-61
2021/06/13 02:35:12;;;;;;;5.28;3.97;;;;;;;11.84;78.04;96301.28;5114987;28;20102;-61
2021/06/13 02:37:41;;;;;;;8.75;3.78;;;;;;;11.87;78.21;96301.97;5115794;28;20377;-61
2021/06/13 02:40:09;;;;;;;4.30;3.63;;;;;;;11.91;78.17;96300.06;5115846;28;20092;-61
2021/06/13 02:42:35;;;;;;;4.93;3.97;;;;;;;11.93;77.62;96300.00;5115544;28;20106;-61
2021/06/13 02:45:02;;;;;;;8.15;3.65;;;;;;;11.92;77.63;96293.91;5115148;28;20027;-60
2021/06/13 02:47:28;;;;;;;11.27;3.95;;;;;;;11.84;77.33;96296.91;5115584;28;20098;-60
2021/06/13 02:49:53;;;;;;;11.45;4.10;;;;;;;11.73;77.94;96294.78;5115460;28;20481;-60
2021/06/13 02:52:34;;;;;;;6.88;3.53;;;;;;;11.78;77.86;96296.34;5115494;28;20099;-60
2021/06/13 02:55:01;;;;;;;5.80;4.55;;;;;;;11.80;77.82;96294.50;5114808;28;20489;-61
2021/06/13 02:57:49;;;;;;;9.80;3.85;;;;;;;11.84;77.59;96291.66;5115290;28;20066;-61
2021/06/13 03:00:16;;;;;;;6.47;4.15;;;;;;;11.91;77.72;96292.22;5115253;28;20019;-62
2021/06/13 03:02:46;;;;;;;5.28;3.80;;;;;;;11.92;77.95;96291.28;5115198;28;20051;-61
2021/06/13 03:05:13;;;;;;;6.88;3.22;;;;;;;11.85;78.22;96292.50;5114940;28;20481;-61
2021/06/13 03:07:41;;;;;;;6.03;4.22;;;;;;;11.86;78.91;96299.47;5115093;28;20039;-60
2021/06/13 03:10:08;;;;;;;7.50;3.97;;;;;;;11.96;78.78;96292.00;5114920;28;20024;-61
2021/06/13 03:12:35;;;;;;;10.73;3.85;;;;;;;12.01;78.47;96290.84;5114862;28;20762;-62
2021/06/13 03:15:01;;;;;;;3.63;3.33;;;;;;;12.06;78.28;96287.16;5113796;28;20062;-62
2021/06/13 03:17:29;;;;;;;12.70;3.70;;;;;;;12.11;77.69;96295.69;5115161;28;20023;-63
2021/06/13 03:19:56;;;;;;;10.25;4.28;;;;;;;12.16;78.11;96292.84;5114642;28;20422;-61
2021/06/13 03:22:22;;;;;;;5.78;3.70;;;;;;;12.22;78.09;96287.31;5114722;28;20024;-61
2021/06/13 03:24:51;;;;;;;7.28;3.53;;;;;;;12.37;78.15;96289.16;5114036;28;20077;-62
2021/06/13 03:27:17;;;;;;;2.65;2.40;;;;;;;12.65;76.84;96294.81;5114250;28;20449;-62
2021/06/13 03:29:45;;;;;;;5.63;2.78;;;;;;;13.02;75.37;96294.72;5114781;28;20046;-62
2021/06/13 03:32:12;;;;;;;4.13;2.60;;;;;;;13.46;74.11;96293.28;5114717;28;20377;-61
2021/06/13 03:34:43;;;;;;;4.03;2.38;;;;;;;13.94;73.52;96287.25;5114508;28;20016;-61
2021/06/13 03:37:12;;;;;;;;;;;;;;;14.37;72.92;96286.63;5114353;28;20020;-61
2021/06/13 03:39:41;;;;;;;3.08;2.40;;;;;;;14.80;72.14;96277.16;5094112;28;19912;-61
2021/06/13 03:42:08;;;;;;;5.38;1.85;;;;;;;15.28;69.36;96274.31;5094124;28;20115;-61
2021/06/13 03:44:34;;;;;;;8.05;2.47;;;;;;;15.74;68.84;96277.63;5093903;28;20485;-61
2021/06/13 03:47:01;;;;;;;6.35;2.13;;;;;;;16.12;67.41;96275.31;5105947;28;20043;-61
2021/06/13 03:49:27;;;;;;;2.53;2.28;;;;;;;16.52;66.43;96269.22;5114325;28;20023;-62
2021/06/13 03:51:53;;;;;;;11.13;1.88;;;;;;;16.94;65.40;96269.06;5114251;28;20520;-62
2021/06/13 03:54:20;;;;;;;5.13;1.98;;;;;;;17.30;64.27;96277.22;5114238;28;20024;-62
2021/06/13 03:56:51;;;;;;;9.70;1.80;;;;;;;17.62;63.40;96270.66;5113850;28;20024;-62
2021/06/13 03:59:21;;;;;;;9.75;2.20;;;;;;;17.98;62.72;96276.06;5114229;28;20022;-62
2021/06/13 04:01:48;;;;;;;1.88;1.70;;;;;;;18.33;62.52;96267.34;5114176;28;20024;-62
2021/06/13 04:04:17;;;;;;;4.07;1.90;;;;;;;18.64;61.68;96270.38;5114137;28;20054;-62
2021/06/13 04:06:46;;;;;;;2.53;2.30;;;;;;;18.98;61.31;96272.25;5113559;28;20114;-62
2021/06/13 04:09:13;;;;;;;2.47;2.25;;;;;;;19.24;60.76;96272.09;5113988;28;20027;-62
2021/06/13 04:11:40;;;;;;;3.95;2.03;;;;;;;19.45;60.63;96276.69;5113852;28;20030;-62
2021/06/13 04:14:06;;;;;;;5.90;2.20;;;;;;;19.78;58.91;96279.44;5113634;28;20043;-62
2021/06/13 04:16:32;;;;;;;8.20;2.00;;;;;;;20.06;58.32;96277.25;5111817;28;20385;-62
2021/06/13 04:18:58;;;;;;;5.00;1.92;;;;;;;20.31;58.63;96275.25;5112611;28;20069;-63
2021/06/13 04:21:25;;;;;;;5.13;2.08;;;;;;;20.62;58.53;96272.69;5113619;28;20027;-63
2021/06/13 04:23:51;;;;;;;5.90;2.30;;;;;;;21.00;57.74;96274.94;5098123;28;20031;-63
2021/06/13 04:26:19;;;;;;;2.72;1.60;;;;;;;21.32;56.52;96272.22;5112522;28;20106;-63
2021/06/13 04:28:45;;;;;;;6.13;1.92;;;;;;;21.55;55.14;96277.34;5113256;28;20028;-64
2021/06/13 04:31:15;;;;;;;5.63;1.73;;;;;;;21.80;55.08;96274.38;5113428;28;20481;-62
2021/06/13 04:33:43;;;;;;;8.25;1.45;;;;;;;22.05;55.08;96274.88;5113562;28;20031;-62
2021/06/13 04:36:10;;;;;;;2.97;1.60;;;;;;;22.30;54.72;96273.50;5111970;28;20059;-63
2021/06/13 04:38:36;;;;;;;2.83;1.58;;;;;;;22.54;55.13;96284.72;5112980;28;20028;-63
2021/06/13 04:41:03;;;;;;;4.65;2.67;;;;;;;22.69;54.46;96271.84;5112856;28;20362;-64
2021/06/13 04:43:29;;;;;;;4.40;1.65;;;;;;;22.92;54.63;96267.06;5113075;28;20026;-62
2021/06/13 04:45:55;;;;;;;2.15;1.48;;;;;;;23.09;54.11;96275.34;5112500;28;20031;-61
2021/06/13 04:48:21;;;;;;;6.20;1.83;;;;;;;23.35;54.08;96266.69;5113241;28;20065;-64
2021/06/13 04:50:47;;;;;;;3.60;1.70;;;;;;;23.54;53.51;96271.13;5113283;28;20026;-61
2021/06/13 04:53:54;;;;;;;10.80;1.83;;;;;;;23.85;53.91;96275.38;5112626;28;20066;-62
2021/06/13 04:56:50;;;;;;;4.50;1.55;;;;;;;24.15;52.33;96278.75;5113576;28;20465;-61
2021/06/13 04:59:16;;;;;;;4.38;1.73;;;;;;;24.43;52.75;96275.16;5094901;28;20031;-61
2021/06/13 05:01:42;;;;;;;4.40;1.95;;;;;;;24.64;51.71;96268.66;5113337;28;20473;-62
2021/06/13 05:04:09;;;;;;;4.43;2.00;;;;;;;24.81;51.51;96273.19;5112954;28;20028;-62
2021/06/13 05:06:35;;;;;;;2.28;2.08;;;;;;;24.91;50.17;96273.13;5113333;28;20137;-61
2021/06/13 05:09:01;;;;;;;2.85;2.60;;;;;;;25.04;50.66;96278.03;5112434;28;20080;-63
2021/06/13 05:11:26;;;;;;;6.90;2.25;;;;;;;25.17;50.84;96279.47;5094465;28;20426;-63
2021/06/13 05:13:52;;;;;;;3.35;2.38;;;;;;;25.38;49.97;96280.94;5112774;28;20044;-62
2021/06/13 05:16:18;;;;;;;33.00;2.83;;;;;;;25.57;49.47;96275.38;5112499;28;20028;-62
2021/06/13 05:18:44;;;;;;;2.97;2.00;;;;;;;25.80;49.32;96274.00;5113144;28;20052;-60
2021/06/13 05:21:10;;;;;;;23.92;3.10;;;;;;;25.95;48.94;96269.69;5113181;28;20054;-62
2021/06/13 05:23:36;;;;;;;5.18;3.35;;;;;;;26.12;48.38;96267.06;5112993;28;20066;-62
2021/06/13 05:26:02;;;;;;;8.43;4.80;;;;;;;26.20;48.71;96269.78;5112659;28;20024;-62
2021/06/13 05:28:28;;;;;;;4.32;2.97;;;;;;;26.33;48.08;96271.16;5113146;28;20023;-62
2021/06/13 05:30:55;;;;;;;7.65;3.22;;;;;;;26.54;49.36;96268.00;5113052;28;20024;-61
2021/06/13 05:33:21;;;;;;;5.07;2.60;;;;;;;26.60;49.79;96270.03;5112747;28;20031;-61
2021/06/13 05:35:48;;;;;;;5.10;2.30;;;;;;;26.64;47.01;96267.03;5110761;28;20105;-62
2021/06/13 05:38:14;;;;;;;3.13;2.40;;;;;;;26.74;48.16;96270.38;5110813;28;20035;-61
2021/06/13 05:40:40;;;;;;;4.55;2.28;;;;;;;26.90;48.31;96268.72;5110278;28;20104;-61
2021/06/13 05:43:11;;;;;;;3.75;3.30;;;;;;;27.02;47.52;96261.19;5110887;28;20020;-61
2021/06/13 05:45:39;;;;;;;10.60;6.20;;;;;;;27.01;48.55;96263.03;5110500;28;20031;-60
2021/06/13 05:48:05;;;;;;;11.43;7.95;;;;;;;27.20;48.84;96266.34;5112528;28;20042;-63
2021/06/13 05:50:31;;;;;;;5.97;3.38;;;;;;;27.34;48.14;96272.88;5114775;28;20102;-63
2021/06/13 05:52:58;;;;;;;5.57;2.10;;;;;;;27.48;47.30;96266.78;5116582;28;20054;-62
2021/06/13 05:55:24;;;;;;;7.55;3.40;;;;;;;27.58;48.09;96274.66;5116201;28;20024;-61
2021/06/13 05:57:50;;;;;;;13.18;9.98;;;;;;;27.68;46.78;96269.09;5116508;28;20038;-63
2021/06/13 06:00:22;;;;;;;11.95;8.75;;;;;;;27.91;46.75;96276.41;5116359;28;20032;-61
2021/06/13 06:02:48;;;;;;;3.78;3.40;;;;;;;28.03;46.18;96282.25;5116367;28;20027;-61
2021/06/13 06:05:16;;;;;;;6.07;2.42;;;;;;;28.10;45.21;96279.66;5116351;28;20472;-61
2021/06/13 06:07:42;;;;;;;4.25;2.30;;;;;;;28.08;44.60;96293.28;5116122;28;20520;-63
2021/06/13 06:10:09;;;;;;;3.47;2.42;;;;;;;27.99;46.44;96281.75;5115360;28;20023;-62
2021/06/13 06:12:37;;;;;;;6.22;2.45;;;;;;;28.10;47.53;96282.34;5115609;28;20039;-62
2021/06/13 06:15:05;;;;;;;5.40;2.20;;;;;;;28.17;45.72;96285.19;5116133;28;20035;-62
2021/06/13 06:17:31;;;;;;;5.30;2.47;;;;;;;28.20;47.45;96272.22;5115960;28;20031;-61
2021/06/13 06:19:57;;;;;;;2.10;1.80;;;;;;;28.17;45.76;96264.50;5116318;28;20059;-62
2021/06/13 06:22:22;;;;;;;11.73;7.43;;;;;;;28.32;47.33;96263.81;5116154;28;20078;-63
2021/06/13 06:24:48;;;;;;;5.82;4.63;;;;;;;28.43;46.65;96255.31;5115874;28;20035;-62
2021/06/13 06:27:13;;;;;;;6.57;2.22;;;;;;;28.53;44.97;96260.44;5115909;28;20023;-60
2021/06/13 06:29:39;;;;;;;5.28;1.70;;;;;;;28.50;44.23;96253.59;5116016;28;20047;-60
2021/06/13 06:32:06;;;;;;;5.75;2.35;;;;;;;28.47;45.40;96251.25;5115870;28;20028;-63
2021/06/13 06:34:32;;;;;;;4.78;1.80;;;;;;;28.40;44.36;96244.06;5115969;28;20039;-61
2021/06/13 06:36:57;;;;;;;2.40;1.98;;;;;;;28.54;47.22;96240.63;5115007;28;20032;-61
2021/06/13 06:39:23;;;;;;;7.75;2.10;;;;;;;28.63;45.21;96236.84;5114741;28;20126;-62
2021/06/13 06:41:49;;;;;;;7.38;2.10;;;;;;;28.80;45.94;96238.56;5114923;28;20035;-62
2021/06/13 06:44:15;;;;;;;3.10;1.70;;;;;;;29.02;43.84;96228.81;5115663;28;20088;-63
2021/06/13 06:46:41;;;;;;;4.93;1.80;;;;;;;29.13;44.67;96231.06;5115034;28;20434;-62
2021/06/13 06:49:07;;;;;;;6.53;2.13;;;;;;;29.19;44.70;96234.03;5114047;28;20034;-61
2021/06/13 06:51:35;;;;;;;2.95;1.80;;;;;;;29.05;45.91;96230.28;5115427;28;20373;-61
2021/06/13 06:54:01;;;;;;;1.63;1.48;;;;;;;28.89;42.70;96221.31;5115544;28;20028;-64
2021/06/13 06:56:28;;;;;;;3.50;1.83;;;;;;;29.13;41.62;96231.06;5113343;28;20023;-61
2021/06/13 06:58:55;;;;;;;3.15;1.63;;;;;;;29.40;39.31;96225.22;5110167;28;20069;-63
2021/06/13 07:01:21;;;;;;;2.25;1.63;;;;;;;29.57;41.43;96217.81;5111998;28;20031;-61
2021/06/13 07:03:50;;;;;;;2.97;1.60;;;;;;;29.80;39.86;96224.97;5113783;28;20024;-63
2021/06/13 07:06:16;;;;;;;3.20;1.65;;;;;;;30.09;41.32;96219.66;5114410;28;20038;-61
2021/06/13 07:08:42;;;;;;;2.65;1.75;;;;;;;30.22;39.72;96217.16;5120808;28;20031;-62
2021/06/13 07:11:08;;;;;;;3.15;1.48;;;;;;;30.17;38.58;96221.44;5114848;28;20016;-63
2021/06/13 07:13:34;;;;;;;1.70;1.60;;;;;;;30.21;40.20;96220.03;5115611;28;20023;-62
2021/06/13 07:16:00;;;;;;;2.15;1.70;;;;;;;30.24;39.36;96217.81;5118088;28;20035;-62
2021/06/13 07:18:26;;;;;;;2.58;1.90;;;;;;;30.26;39.61;96221.16;5116256;28;20068;-60
2021/06/13 07:20:56;;;;;;;4.85;1.90;;;;;;;30.34;40.53;96219.34;5115491;28;20031;-61
2021/06/13 07:23:22;;;;;;;6.05;1.95;;;;;;;30.64;40.72;96222.75;5115626;28;20385;-63
2021/06/13 07:25:48;;;;;;;4.07;1.70;;;;;;;30.84;39.96;96214.00;5114195;28;20023;-61
2021/06/13 07:28:14;;;;;;;1.92;1.50;;;;;;;30.84;40.26;96221.28;5110964;28;20027;-62
2021/06/13 07:30:40;;;;;;;3.47;2.20;;;;;;;30.80;40.12;96218.16;5112095;28;20042;-64
2021/06/13 07:33:06;;;;;;;3.95;1.58;;;;;;;30.86;39.35;96211.13;5111903;28;20039;-65
2021/06/13 07:35:33;;;;;;;7.40;3.15;;;;;;;30.86;40.62;96214.66;5111882;28;20036;-63
2021/06/13 07:38:00;;;;;;;12.15;2.63;;;;;;;30.94;40.51;96213.66;5112349;28;20027;-62
2021/06/13 07:40:27;;;;;;;2.38;1.92;;;;;;;31.10;38.40;96201.75;5111723;28;20495;-63
2021/06/13 07:42:53;;;;;;;4.43;1.75;;;;;;;30.99;37.26;96204.97;5112921;28;20022;-61
2021/06/13 07:45:19;;;;;;;12.57;5.38;;;;;;;30.75;39.12;96201.66;5113451;28;20024;-61
2021/06/13 07:47:44;;;;;;;6.57;4.15;;;;;;;30.67;38.82;96204.50;5113281;28;20016;-63
2021/06/13 07:50:12;;;;;;;3.08;2.05;;;;;;;30.49;39.92;96203.94;5114312;28;20019;-61
2021/06/13 07:52:38;;;;;;;2.10;1.90;;;;;;;30.14;39.51;96203.75;5114276;28;20084;-62
2021/06/13 07:55:06;;;;;;;4.80;1.88;;;;;;;29.95;40.13;96202.53;5113895;28;20015;-64
2021/06/13 07:57:32;;;;;;;1.98;1.73;;;;;;;29.76;41.75;96196.69;5112992;28;20036;-61
2021/06/13 07:59:57;;;;;;;2.60;2.00;;;;;;;29.87;41.97;96195.38;5114089;28;20030;-63
2021/06/13 08:02:23;;;;;;;2.75;2.30;;;;;;;29.96;40.92;96190.72;5111948;28;20024;-64
2021/06/13 08:04:54;;;;;;;6.53;2.42;;;;;;;30.18;41.75;96178.13;5111181;28;20038;-61
2021/06/13 08:07:19;;;;;;;2.08;1.88;;;;;;;30.14;42.62;96188.44;5113849;28;20031;-62
2021/06/13 08:09:45;;;;;;;2.25;1.90;;;;;;;30.16;42.46;96182.88;5113373;28;20492;-62
2021/06/13 08:12:11;;;;;;;2.30;1.75;;;;;;;30.17;41.59;96181.84;5112129;28;20066;-60
2021/06/13 08:14:37;;;;;;;2.08;1.80;;;;;;;30.04;40.27;96185.22;5113370;28;20070;-61
2021/06/13 08:17:03;;;;;;;1.80;1.70;;;;;;;30.00;40.73;96181.22;5113080;28;20042;-62
2021/06/13 08:19:29;;;;;;;5.82;2.45;;;;;;;30.02;40.58;96182.72;5111806;28;20024;-62
2021/06/13 08:21:54;;;;;;;2.55;2.17;;;;;;;29.94;40.86;96177.41;5113124;28;20077;-65
2021/06/13 08:24:20;;;;;;;2.38;1.90;;;;;;;29.99;40.98;96183.09;5113586;28;20031;-62
2021/06/13 08:26:46;;;;;;;6.53;1.95;;;;;;;30.01;40.99;96172.94;5113643;28;20110;-63
2021/06/13 08:29:11;;;;;;;21.63;8.57;;;;;;;29.97;39.70;96186.97;5113322;28;20082;-62
2021/06/13 08:31:37;;;;;;;6.10;1.80;;;;;;;30.17;39.26;96179.16;5113553;28;20402;-61
2021/06/13 08:34:04;;;;;;;2.65;2.38;;;;;;;30.39;38.79;96171.06;5113724;28;20103;-60
2021/06/13 08:36:30;;;;;;;8.98;2.42;;;;;;;30.29;39.47;96168.69;5113290;28;20038;-61
2021/06/13 08:38:56;;;;;;;42.15;20.70;;;;;;;30.56;42.14;96160.84;5113126;28;20126;-62
2021/06/13 08:41:23;;;;;;;29.88;12.55;;;;;;;30.43;39.06;96153.44;5113458;28;20016;-62
2021/06/13 08:43:50;;;;;;;21.05;8.63;;;;;;;30.45;39.06;96159.50;5113067;28;20493;-63
2021/06/13 08:46:17;;;;;;;42.42;20.08;;;;;;;30.39;39.51;96160.25;5113128;28;20031;-62
2021/06/13 08:48:46;;;;;;;26.67;9.52;;;;;;;30.29;39.80;96162.44;5113476;28;20377;-63
2021/06/13 08:51:13;;;;;;;6.80;4.22;;;;;;;30.30;39.04;96150.63;5113704;28;20024;-61
2021/06/13 08:53:44;;;;;;;2.95;2.40;;;;;;;30.48;38.22;96144.78;5112873;28;20031;-60
2021/06/13 08:56:15;;;;;;;7.90;4.57;;;;;;;30.26;39.09;96136.72;5112856;28;20039;-61
2021/06/13 08:58:42;;;;;;;2.00;1.65;;;;;;;30.21;40.57;96137.28;5113350;28;20076;-61
2021/06/13 09:01:13;;;;;;;3.72;2.22;;;;;;;30.22;39.46;96138.94;5112301;28;20032;-62
2021/06/13 09:03:43;;;;;;;4.20;2.25;;;;;;;30.28;39.73;96140.06;5111964;28;20027;-62
2021/06/13 09:06:09;;;;;;;4.93;2.07;;;;;;;29.92;39.71;96132.84;5112243;28;20031;-60
2021/06/13 09:08:48;;;;;;;3.58;2.33;;;;;;;29.88;39.12;96135.06;5111693;28;20260;-61
2021/06/13 09:11:26;;;;;;;7.55;2.67;;;;;;;29.85;39.81;96133.59;5111378;28;20028;-62
2021/06/13 09:13:51;;;;;;;18.45;9.85;;;;;;;29.81;40.40;96126.91;5112087;28;20043;-63
2021/06/13 09:16:17;;;;;;;10.07;3.60;;;;;;;29.89;39.96;96131.34;5112699;28;20485;-62
2021/06/13 09:18:45;;;;;;;4.82;2.40;;;;;;;29.94;39.75;96115.44;5113123;28;20103;-62
2021/06/13 09:21:30;;;;;;;6.78;2.30;;;;;;;29.80;40.37;96117.19;5112862;28;20038;-63
2021/06/13 09:23:57;;;;;;;3.35;2.10;;;;;;;29.67;39.89;96122.41;5116893;28;20030;-63
2021/06/13 09:26:28;;;;;;;3.97;2.20;;;;;;;29.31;40.13;96119.47;5117080;28;20473;-61
2021/06/13 09:28:56;;;;;;;4.63;2.10;;;;;;;29.11;40.42;96117.34;5117048;28;20050;-63
2021/06/13 09:31:28;;;;;;;3.33;1.80;;;;;;;28.91;40.30;96111.66;5116729;28;20373;-63
2021/06/13 09:33:56;;;;;;;4.25;2.72;;;;;;;28.74;40.70;96117.22;5117055;28;20374;-63
2021/06/13 09:36:25;;;;;;;3.35;2.53;;;;;;;28.24;40.50;96111.44;5116571;28;20466;-62
2021/06/13 09:39:05;;;;;;;3.97;2.58;;;;;;;27.84;42.96;96115.06;5116290;28;20032;-63
2021/06/13 09:41:32;;;;;;;7.03;2.97;;;;;;;27.90;42.34;96110.81;5115700;28;20042;-62
2021/06/13 09:44:07;;;;;;;5.28;2.70;;;;;;;27.94;43.16;96108.63;5116849;28;20065;-62
2021/06/13 09:46:35;;;;;;;5.50;3.58;;;;;;;27.92;45.62;96106.13;5116964;28;20413;-63
2021/06/13 09:49:13;;;;;;;5.82;3.10;;;;;;;27.94;46.47;96097.88;5116363;28;20027;-62
2021/06/13 09:51:50;;;;;;;5.22;2.50;;;;;;;27.50;45.64;96092.94;5116668;28;20107;-62
2021/06/13 09:54:26;;;;;;;4.45;2.60;;;;;;;27.39;46.78;96093.31;5098844;28;20027;-62
2021/06/13 09:56:53;;;;;;;4.45;2.50;;;;;;;27.07;44.79;96095.13;5116082;28;20035;-62
2021/06/13 09:59:25;;;;;;;8.43;2.80;;;;;;;26.74;46.66;96123.72;5101702;28;20020;-64
2021/06/13 10:01:59;;;;;;;6.28;2.83;;;;;;;26.54;47.52;96176.84;5116252;28;20493;-64
2021/06/13 10:04:28;;;;;;;11.63;3.38;;;;;;;25.11;52.01;96214.06;5116409;28;20024;-64
2021/06/13 10:07:02;;;;;;;9.05;4.05;;;;;;;24.07;55.87;96228.72;5116391;28;20024;-64
2021/06/13 10:09:36;;;;;;;14.73;4.50;;;;;;;23.01;58.84;96236.03;5115913;28;20032;-62
2021/06/13 10:12:10;;;;;;;9.65;3.88;;;;;;;22.25;60.21;96243.78;5116195;28;20023;-63
2021/06/13 10:14:38;;;;;;;7.72;4.22;;;;;;;21.67;62.14;96248.00;5115963;28;20115;-65
2021/06/13 10:17:04;;;;;;;10.15;4.10;;;;;;;21.30;63.99;96247.56;5116090;28;20023;-60
2021/06/13 10:19:41;;;;;;;5.97;3.83;;;;;;;20.78;64.96;96240.41;5115899;28;20032;-60
2021/06/13 10:22:08;;;;;;;14.00;5.30;;;;;;;20.65;66.44;96232.59;5116109;28;20561;-60
2021/06/13 10:24:36;;;;;;;16.77;4.22;;;;;;;20.53;66.76;96220.34;5116089;28;20047;-60
2021/06/13 10:27:03;;;;;;;12.07;4.70;;;;;;;20.45;67.90;96213.03;5115809;28;20026;-60
2021/06/13 10:29:32;;;;;;;6.72;4.28;;;;;;;20.47;67.37;96202.28;5115556;28;20040;-60
2021/06/13 10:31:59;;;;;;;10.77;4.30;;;;;;;20.60;67.67;96200.28;5097720;28;20020;-62
2021/06/13 10:34:27;;;;;;;7.70;3.72;;;;;;;20.74;68.34;96191.13;5115875;28;20022;-62
2021/06/13 10:36:54;;;;;;;5.18;3.42;;;;;;;20.87;67.54;96195.38;5115892;28;20023;-62
2021/06/13 10:39:23;;;;;;;7.95;3.30;;;;;;;20.93;68.73;96190.44;5115347;28;20424;-62
2021/06/13 10:41:51;;;;;;;3.47;3.08;;;;;;;21.10;69.29;96182.78;5114933;28;20036;-62
2021/06/13 10:44:19;;;;;;;6.05;3.20;;;;;;;21.21;69.38;96184.53;5115554;28;20032;-62
2021/06/13 10:46:48;;;;;;;3.30;3.00;;;;;;;21.21;66.09;96182.72;5114517;28;20028;-62
2021/06/13 10:49:32;;;;;;;3.78;3.22;;;;;;;21.37;65.76;96183.19;5115493;28;20027;-62
2021/06/13 10:52:08;;;;;;;6.80;3.70;;;;;;;21.49;65.67;96179.44;5114376;28;20196;-62
2021/06/13 10:54:50;;;;;;;4.20;3.60;;;;;;;21.37;64.95;96165.41;5115245;28;20032;-62
2021/06/13 10:57:16;;;;;;;4.57;3.80;;;;;;;21.40;66.04;96172.28;5095815;28;20033;-62
2021/06/13 10:59:47;;;;;;;7.20;4.03;;;;;;;21.27;64.71;96188.47;5114323;28;20023;-62
2021/06/13 11:02:14;;;;;;;;;;;;;;;21.29;66.68;96179.41;5115209;28;20047;-62
2021/06/13 11:04:45;;;;;;;8.90;4.80;;;;;;;21.32;66.49;96187.13;5115178;28;19947;-62
2021/06/13 11:07:35;;;;;;;4.22;3.83;;;;;;;21.38;64.60;96179.56;5115341;28;20036;-62
2021/06/13 11:10:14;;;;;;;6.15;4.00;;;;;;;21.29;65.29;96190.03;5115339;28;20104;-62
2021/06/13 11:12:41;;;;;;;4.32;3.80;;;;;;;21.27;65.41;96193.78;5114660;28;20023;-62
2021/06/13 11:15:08;;;;;;;4.20;3.80;;;;;;;21.28;66.18;96196.31;5113458;28;20528;-62
2021/06/13 11:17:59;;;;;;;5.00;4.00;;;;;;;21.28;67.01;96196.31;5113292;28;20035;-62
2021/06/13 11:20:32;;;;;;;9.18;3.78;;;;;;;21.33;65.99;96201.22;5115102;28;20115;-62
2021/06/13 11:23:08;;;;;;;5.32;3.78;;;;;;;21.32;67.64;96199.56;5115042;28;20036;-61
2021/06/13 11:25:40;;;;;;;4.88;3.35;;;;;;;21.10;67.08;96196.09;5114983;28;20471;-62
2021/06/13 11:28:35;;;;;;;4.03;3.17;;;;;;;20.77;67.04;96188.19;5114668;28;20051;-64
2021/06/13 11:31:10;;;;;;;3.60;3.30;;;;;;;20.62;65.89;96193.00;5105528;28;20059;-61
2021/06/13 11:33:38;;;;;;;7.07;4.00;;;;;;;20.50;67.86;96178.94;5114768;28;20461;-62
2021/06/13 11:36:05;;;;;;;7.68;3.92;;;;;;;20.33;66.59;96167.94;5114852;28;20023;-62
2021/06/13 11:38:33;;;;;;;6.22;3.95;;;;;;;20.25;67.90;96170.38;5114806;28;20020;-62